Time;durP1;ratioP1;P1;durP2;ratioP2;P2;SDS_P1;SDS_P2;PMS_P1;PMS_P2;Temp;Humidity;BMP_temperature;BMP_pressure;BME280_temperature;BME280_humidity;BME280_pressure;Samples;Min_cycle;Max_cycle;Signal;HPM_P1;HPM_P2
2023/01/21 00:02:11;;;;;;;97.47;32.63;;;;;;;5.97;59.78;102752.47;5051434;28;20529;-70
2023/01/21 00:04:37;;;;;;;86.43;31.47;;;;;;;6.34;58.12;102764.31;5050314;28;20117;-70
2023/01/21 00:07:06;;;;;;;85.90;30.90;;;;;;;5.94;59.62;102763.59;5051637;28;20088;-71
2023/01/21 00:09:32;;;;;;;89.87;30.37;;;;;;;5.98;59.53;102769.84;5050909;28;20051;-71
2023/01/21 00:12:01;;;;;;;80.70;29.23;;;;;;;5.85;60.07;102773.59;5047949;28;20068;-70
2023/01/21 00:14:30;;;;;;;92.20;30.30;;;;;;;5.76;61.04;102777.59;5051380;28;20039;-71
2023/01/21 00:16:57;;;;;;;79.23;30.57;;;;;;;5.78;60.29;102777.66;5050959;28;20040;-71
2023/01/21 00:19:22;;;;;;;77.83;27.50;;;;;;;5.78;62.02;102782.84;5050822;28;20485;-71
2023/01/21 00:21:48;;;;;;;78.87;28.63;;;;;;;5.48;62.39;102774.69;5039524;28;20045;-71
2023/01/21 00:24:13;;;;;;;85.60;28.30;;;;;;;4.90;63.91;102782.63;5038199;28;20029;-71
2023/01/21 00:26:39;;;;;;;81.63;29.07;;;;;;;5.81;61.67;102777.81;5035010;28;20469;-70
2023/01/21 00:29:04;;;;;;;85.43;29.60;;;;;;;6.01;60.81;102781.22;5037203;28;20029;-71
2023/01/21 00:31:29;;;;;;;81.07;28.87;;;;;;;5.67;62.57;102786.72;5050525;28;20587;-71
2023/01/21 00:33:55;;;;;;;80.03;28.47;;;;;;;5.45;62.72;102788.41;5051778;28;20388;-71
2023/01/21 00:36:23;;;;;;;83.30;29.27;;;;;;;5.87;61.02;102793.59;5052285;28;20029;-71
2023/01/21 00:38:49;;;;;;;87.33;29.97;;;;;;;5.88;60.86;102790.19;5045847;28;20546;-71
2023/01/21 00:41:16;;;;;;;78.63;29.13;;;;;;;6.37;59.72;102795.59;5032210;28;20033;-70
2023/01/21 00:43:42;;;;;;;81.73;29.50;;;;;;;5.65;61.04;102798.75;5032787;28;20017;-71
2023/01/21 00:46:08;;;;;;;85.50;28.63;;;;;;;6.11;59.97;102798.03;5030646;28;20108;-71
2023/01/21 00:48:34;;;;;;;77.70;28.20;;;;;;;5.76;61.10;102815.66;5031657;28;20477;-71
2023/01/21 00:51:00;;;;;;;75.90;28.10;;;;;;;6.46;58.91;102811.53;5031151;28;20060;-71
2023/01/21 00:53:30;;;;;;;78.97;29.80;;;;;;;5.50;60.81;102823.22;5070111;28;20077;-71
2023/01/21 00:56:04;;;;;;;79.17;29.97;;;;;;;5.67;60.31;102815.25;5050959;28;20036;-71
2023/01/21 00:58:29;;;;;;;68.40;26.67;;;;;;;5.45;61.22;102822.13;5051135;28;20025;-70
2023/01/21 01:01:12;;;;;;;85.10;28.90;;;;;;;5.18;62.90;102820.13;5048381;28;20100;-71
2023/01/21 01:03:38;;;;;;;78.88;27.45;;;;;;;5.60;61.24;102830.59;5032509;28;20026;-70
2023/01/21 01:06:09;;;;;;;72.27;27.67;;;;;;;5.47;61.92;102833.47;5030800;28;20068;-71
2023/01/21 01:08:35;;;;;;;74.10;26.80;;;;;;;5.39;62.43;102832.25;5040972;28;20492;-71
2023/01/21 01:11:01;;;;;;;79.73;26.97;;;;;;;4.98;66.75;102852.03;5030993;28;20038;-71
2023/01/21 01:13:27;;;;;;;70.33;26.13;;;;;;;5.03;61.82;102845.38;5046883;28;20067;-71
2023/01/21 01:15:54;;;;;;;74.13;27.40;;;;;;;5.38;62.87;102854.69;5034596;28;20135;-71
2023/01/21 01:18:22;;;;;;;69.87;24.93;;;;;;;6.40;58.60;102858.97;5049330;28;20094;-71
2023/01/21 01:20:48;;;;;;;71.17;26.70;;;;;;;6.21;58.18;102851.22;5043682;28;20041;-70
2023/01/21 01:23:13;;;;;;;68.27;24.43;;;;;;;6.11;58.63;102858.66;5037622;28;20025;-71
2023/01/21 01:25:38;;;;;;;67.80;24.97;;;;;;;5.48;60.36;102860.28;5049829;28;20025;-71
2023/01/21 01:28:04;;;;;;;64.17;24.03;;;;;;;5.80;60.34;102859.06;5049395;28;20166;-71
2023/01/21 01:30:30;;;;;;;62.00;22.50;;;;;;;6.02;59.73;102857.41;5034619;28;20060;-71
2023/01/21 01:32:55;;;;;;;67.37;23.47;;;;;;;5.15;62.52;102864.06;5030473;28;20564;-71
2023/01/21 01:35:21;;;;;;;62.13;24.57;;;;;;;5.51;62.45;102858.72;5045493;28;20025;-71
2023/01/21 01:37:46;;;;;;;70.90;25.77;;;;;;;5.85;59.96;102862.75;5051523;28;20033;-71
2023/01/21 01:40:12;;;;;;;70.03;25.27;;;;;;;5.36;62.56;102871.91;5049885;28;20036;-72
2023/01/21 01:42:37;;;;;;;62.30;22.73;;;;;;;5.41;62.12;102870.41;5049612;28;20060;-71
2023/01/21 01:45:11;;;;;;;67.27;23.53;;;;;;;4.83;66.69;102879.00;5037356;28;20246;-71
2023/01/21 01:47:43;;;;;;;69.00;24.57;;;;;;;5.47;62.13;102885.34;5046167;28;20033;-71
2023/01/21 01:50:11;;;;;;;64.63;24.43;;;;;;;6.12;60.11;102877.72;5049240;28;20024;-70
2023/01/21 01:52:38;;;;;;;57.97;21.17;;;;;;;5.63;60.03;102881.69;5051208;28;20032;-70
2023/01/21 01:55:05;;;;;;;56.50;22.43;;;;;;;5.63;61.45;102886.00;5049392;28;20475;-71
2023/01/21 01:57:51;;;;;;;62.87;24.77;;;;;;;5.57;60.34;102887.50;5064947;28;20033;-70
2023/01/21 02:00:17;;;;;;;60.87;22.57;;;;;;;5.48;61.48;102894.91;5049621;28;20107;-70
2023/01/21 02:03:43;;;;;;;66.57;23.57;;;;;;;6.02;60.21;102885.97;5049154;28;20098;-70
2023/01/21 02:05:31;;;;;;;67.50;24.03;;;;;;;6.55;57.09;102895.06;5048688;28;20408;-70
2023/01/21 02:07:56;;;;;;;62.60;24.17;;;;;;;6.35;56.18;102895.97;5033629;28;20065;-70
2023/01/21 02:10:22;;;;;;;66.63;27.13;;;;;;;6.14;56.58;102907.25;5040209;28;20032;-71
2023/01/21 02:12:47;;;;;;;59.80;23.13;;;;;;;6.38;57.22;102909.06;5051006;28;20473;-70
2023/01/21 02:15:13;;;;;;;60.90;23.50;;;;;;;6.10;56.08;102915.75;5048494;28;20020;-71
2023/01/21 02:17:44;;;;;;;61.80;24.13;;;;;;;6.66;56.22;102915.38;5047225;28;20063;-71
2023/01/21 02:20:46;;;;;;;65.90;23.37;;;;;;;6.47;56.74;102912.06;5050398;28;20025;-71
2023/01/21 02:23:19;;;;;;;61.45;23.77;;;;;;;6.40;56.24;102925.59;5047312;28;20032;-71
2023/01/21 02:26:02;;;;;;;60.58;22.13;;;;;;;5.48;60.79;102928.63;5028928;28;20087;-71
2023/01/21 02:28:36;;;;;;;64.00;22.90;;;;;;;5.69;59.52;102933.00;5029817;28;20120;-70
2023/01/21 02:31:29;;;;;;;58.50;21.13;;;;;;;5.77;61.13;102931.63;5047498;28;20028;-71
2023/01/21 02:34:13;;;;;;;62.40;23.17;;;;;;;6.04;57.61;102933.63;5049182;28;20021;-71
2023/01/21 02:36:57;;;;;;;64.30;23.10;;;;;;;6.73;55.71;102945.97;5048748;28;20029;-70
2023/01/21 02:39:31;;;;;;;58.30;22.83;;;;;;;6.78;54.70;102954.84;5045654;28;20033;-70
2023/01/21 02:42:06;;;;;;;69.13;24.17;;;;;;;6.69;54.82;102959.66;5029148;28;20037;-71
2023/01/21 02:44:36;;;;;;;60.60;22.97;;;;;;;5.82;57.10;102976.81;5047328;28;20390;-71
2023/01/21 02:47:31;;;;;;;63.13;23.63;;;;;;;5.86;56.87;102983.03;5051633;28;20028;-70
2023/01/21 02:50:29;;;;;;;59.43;22.27;;;;;;;5.61;57.88;102989.72;5048772;28;20036;-70
2023/01/21 02:53:00;;;;;;;60.67;23.37;;;;;;;5.93;57.35;102991.16;5034965;28;20118;-71
2023/01/21 02:55:33;;;;;;;61.83;23.50;;;;;;;5.72;58.55;103001.47;5045058;28;20024;-71
2023/01/21 02:58:03;;;;;;;60.70;22.63;;;;;;;4.89;62.20;103005.41;5051725;28;20021;-71
2023/01/21 03:00:35;;;;;;;57.63;23.07;;;;;;;6.13;58.08;103004.16;5047111;28;20566;-71
2023/01/21 03:03:18;;;;;;;70.10;23.07;;;;;;;6.46;55.88;103003.81;5049078;28;20116;-71
2023/01/21 03:05:44;;;;;;;62.67;23.60;;;;;;;6.41;55.19;103001.00;5048080;28;20106;-71
2023/01/21 03:08:35;;;;;;;60.83;23.20;;;;;;;6.04;58.33;103014.13;5040726;28;20040;-71
2023/01/21 03:11:18;;;;;;;63.77;23.80;;;;;;;6.08;56.62;103000.47;5045627;28;20017;-70
2023/01/21 03:16:56;;;;;;;64.43;23.30;;;;;;;5.87;57.43;103001.25;5051113;28;20063;-71
2023/01/21 03:19:31;;;;;;;63.60;22.67;;;;;;;6.27;55.73;102996.94;5050967;28;20087;-70
2023/01/21 03:21:59;;;;;;;63.53;24.33;;;;;;;6.60;54.53;102992.25;5051787;28;20025;-71
2023/01/21 03:24:24;;;;;;;53.87;21.70;;;;;;;6.08;55.70;103003.06;5053374;28;20043;-71
2023/01/21 03:26:54;;;;;;;61.60;23.63;;;;;;;6.30;55.73;103004.84;5044053;28;20616;-71
2023/01/21 03:29:26;;;;;;;65.50;24.77;;;;;;;6.34;55.58;103008.47;5052875;28;20369;-70
2023/01/21 03:31:58;;;;;;;66.90;24.55;;;;;;;6.59;54.30;103006.09;5041879;28;20025;-71
2023/01/21 03:34:28;;;;;;;71.55;24.55;;;;;;;5.66;56.47;103010.69;5039185;28;20094;-72
2023/01/21 03:37:03;;;;;;;67.30;23.20;;;;;;;6.35;55.36;103005.06;5032714;28;20029;-72
2023/01/21 03:39:41;;;;;;;65.17;23.97;;;;;;;6.13;56.01;103013.63;5044485;28;20029;-72
2023/01/21 03:42:08;;;;;;;69.23;23.93;;;;;;;6.14;56.25;103021.50;5033924;28;20041;-71
2023/01/21 03:44:34;;;;;;;64.30;24.20;;;;;;;6.16;55.84;103019.84;5032040;28;20014;-71
2023/01/21 03:47:30;;;;;;;64.67;24.70;;;;;;;6.30;55.74;103022.16;5033775;28;20036;-72
2023/01/21 03:50:33;;;;;;;68.37;23.70;;;;;;;6.27;55.84;103034.19;5032309;28;20201;-72
2023/01/21 03:52:59;;;;;;;71.43;23.75;;;;;;;6.42;55.03;103035.69;5040256;28;20070;-71
2023/01/21 03:55:24;;;;;;;63.80;22.80;;;;;;;6.03;56.20;103033.13;5036726;28;20037;-71
2023/01/21 03:57:49;;;;;;;61.13;22.50;;;;;;;5.45;57.73;103047.78;5032039;28;20104;-72
2023/01/21 04:00:15;;;;;;;68.90;25.17;;;;;;;6.07;56.34;103046.31;5038225;28;20484;-72
2023/01/21 04:02:41;;;;;;;64.43;24.00;;;;;;;5.66;58.19;103039.22;5050120;28;20401;-72
2023/01/21 04:05:06;;;;;;;67.80;25.23;;;;;;;6.21;56.10;103044.31;5051858;28;20053;-72
2023/01/21 04:07:32;;;;;;;73.20;25.07;;;;;;;6.16;55.47;103053.63;5033684;28;20126;-72
2023/01/21 04:09:57;;;;;;;63.73;25.47;;;;;;;6.34;55.29;103050.03;5050328;28;20035;-72
2023/01/21 04:12:23;;;;;;;68.53;24.87;;;;;;;6.05;55.80;103054.84;5048565;28;20029;-72
2023/01/21 04:14:48;;;;;;;68.10;25.60;;;;;;;5.43;58.73;103055.50;5035319;28;20041;-72
2023/01/21 04:17:13;;;;;;;70.63;26.40;;;;;;;6.03;56.98;103051.28;5030710;28;20032;-72
2023/01/21 04:19:39;;;;;;;74.00;25.23;;;;;;;5.72;57.89;103053.38;5031872;28;20101;-72
2023/01/21 04:22:04;;;;;;;62.43;24.33;;;;;;;6.00;57.72;103046.84;5038740;28;20057;-72
2023/01/21 04:24:30;;;;;;;77.20;25.87;;;;;;;5.17;60.14;103058.59;5032105;28;20466;-72
2023/01/21 04:26:55;;;;;;;71.50;26.17;;;;;;;5.72;57.96;103052.50;5031386;28;20033;-72
2023/01/21 04:29:21;;;;;;;67.37;24.70;;;;;;;5.59;58.63;103062.31;5031025;28;20037;-72
2023/01/21 04:31:47;;;;;;;64.20;23.93;;;;;;;5.77;57.22;103056.19;5044487;28;20033;-72
2023/01/21 04:34:12;;;;;;;67.33;24.20;;;;;;;5.40;59.71;103054.50;5044618;28;20033;-72
2023/01/21 04:36:38;;;;;;;76.50;25.37;;;;;;;5.14;59.38;103059.34;5031501;28;20307;-72
2023/01/21 04:39:03;;;;;;;71.63;25.00;;;;;;;5.24;59.59;103058.94;5041111;28;20113;-72
2023/01/21 04:41:28;;;;;;;69.60;25.63;;;;;;;5.20;62.22;103036.28;5050993;28;20437;-72
2023/01/21 04:43:54;;;;;;;72.13;25.60;;;;;;;5.89;58.23;103045.44;5043773;28;20056;-73
2023/01/21 04:46:19;;;;;;;68.53;25.60;;;;;;;5.45;59.75;103042.59;5071337;28;20025;-72
2023/01/21 04:48:45;;;;;;;67.47;24.87;;;;;;;5.87;58.54;103052.31;5044536;28;20091;-73
2023/01/21 04:51:10;;;;;;;73.37;25.30;;;;;;;5.79;57.77;103044.16;5050590;28;20025;-71
2023/01/21 04:53:35;;;;;;;67.33;23.77;;;;;;;5.70;57.77;103049.84;5081880;28;20508;-72
2023/01/21 04:56:01;;;;;;;70.60;27.60;;;;;;;5.52;57.64;103057.66;5050991;28;20035;-72
2023/01/21 04:58:26;;;;;;;73.07;26.40;;;;;;;5.48;58.72;103055.75;5051871;28;20090;-72
2023/01/21 05:00:53;;;;;;;70.00;24.17;;;;;;;5.68;58.49;103055.75;5030282;28;20037;-71
2023/01/21 05:03:19;;;;;;;72.40;24.50;;;;;;;6.10;56.42;103062.03;5050672;28;20075;-72
2023/01/21 05:05:44;;;;;;;74.03;25.17;;;;;;;5.94;57.01;103065.59;5049751;28;20033;-72
2023/01/21 05:08:09;;;;;;;67.77;22.87;;;;;;;6.02;56.19;103067.72;5051756;28;20028;-72
2023/01/21 05:10:35;;;;;;;71.23;25.37;;;;;;;5.82;57.46;103065.06;5050582;28;20061;-72
2023/01/21 05:13:00;;;;;;;67.70;23.07;;;;;;;5.96;56.83;103078.66;5051053;28;20028;-72
2023/01/21 05:15:26;;;;;;;71.83;24.73;;;;;;;5.75;56.43;103078.56;5049133;28;20078;-72
2023/01/21 05:17:51;;;;;;;72.57;25.13;;;;;;;5.21;59.25;103074.34;5032461;28;20061;-71
2023/01/21 05:20:16;;;;;;;72.10;24.50;;;;;;;5.87;57.59;103086.03;5049383;28;20036;-72
2023/01/21 05:22:47;;;;;;;72.07;24.63;;;;;;;5.77;57.86;103087.34;5050560;28;20543;-72
2023/01/21 05:25:13;;;;;;;70.13;24.30;;;;;;;5.69;57.88;103084.38;5038023;28;20037;-72
2023/01/21 05:27:39;;;;;;;69.80;25.23;;;;;;;5.76;57.56;103091.63;5030968;28;20037;-72
2023/01/21 05:30:05;;;;;;;63.77;25.13;;;;;;;5.83;56.98;103087.59;5044889;28;20090;-72
2023/01/21 05:32:30;;;;;;;71.23;25.67;;;;;;;5.52;58.40;103093.97;5037569;28;20121;-72
2023/01/21 05:34:55;;;;;;;70.23;23.97;;;;;;;5.67;56.79;103098.09;5030722;28;20033;-72
2023/01/21 05:37:21;;;;;;;74.30;25.27;;;;;;;5.99;56.20;103101.31;5031561;28;20450;-72
2023/01/21 05:39:46;;;;;;;74.37;25.93;;;;;;;5.95;56.82;103098.53;5041610;28;20029;-72
2023/01/21 05:42:12;;;;;;;77.40;26.63;;;;;;;6.04;55.60;103098.09;5034238;28;20508;-72
2023/01/21 05:44:37;;;;;;;74.10;25.27;;;;;;;5.68;56.57;103107.66;5041538;28;20388;-72
2023/01/21 05:47:02;;;;;;;73.17;25.87;;;;;;;5.15;58.37;103110.38;5050492;28;20033;-72
2023/01/21 05:49:28;;;;;;;67.60;23.57;;;;;;;5.58;57.15;103112.41;5050079;28;20025;-72
2023/01/21 05:51:53;;;;;;;64.97;25.10;;;;;;;5.20;57.20;103114.06;5049637;28;20136;-72
2023/01/21 05:54:19;;;;;;;70.47;26.03;;;;;;;5.23;57.23;103124.59;5043944;28;20061;-72
2023/01/21 05:56:44;;;;;;;65.87;21.27;;;;;;;4.17;59.77;103132.16;5032527;28;20032;-72
2023/01/21 05:59:09;;;;;;;62.23;24.37;;;;;;;4.63;60.81;103131.97;5049771;28;20060;-72
2023/01/21 06:01:35;;;;;;;72.67;24.80;;;;;;;4.96;58.95;103121.53;5048037;28;20032;-72
2023/01/21 06:04:00;;;;;;;69.90;24.33;;;;;;;4.68;58.99;103133.09;5049124;28;20044;-73
2023/01/21 06:06:25;;;;;;;68.60;24.70;;;;;;;5.36;58.03;103135.56;5050632;28;20049;-72
2023/01/21 06:08:51;;;;;;;67.80;25.87;;;;;;;4.65;59.54;103145.88;5048705;28;20028;-72
2023/01/21 06:11:16;;;;;;;67.37;25.10;;;;;;;5.26;58.53;103150.69;5042722;28;20098;-72
2023/01/21 06:13:42;;;;;;;74.40;25.47;;;;;;;5.04;59.20;103153.00;5029279;28;20037;-72
2023/01/21 06:16:07;;;;;;;80.23;27.13;;;;;;;5.51;57.48;103154.47;5029219;28;20168;-72
2023/01/21 06:18:33;;;;;;;75.10;27.63;;;;;;;4.86;59.26;103156.47;5030714;28;20064;-72
2023/01/21 06:20:59;;;;;;;82.70;27.70;;;;;;;5.29;58.00;103159.41;5044629;28;20028;-72
2023/01/21 06:23:24;;;;;;;70.23;27.27;;;;;;;4.80;58.51;103173.41;5036654;28;20108;-72
2023/01/21 06:25:50;;;;;;;75.30;27.40;;;;;;;5.13;58.54;103169.03;5038722;28;20071;-72
2023/01/21 06:28:15;;;;;;;81.50;27.83;;;;;;;5.49;56.93;103163.88;5046769;28;20040;-72
2023/01/21 06:30:40;;;;;;;83.73;26.63;;;;;;;5.44;56.66;103170.56;5032338;28;20460;-72
2023/01/21 06:33:06;;;;;;;76.20;26.30;;;;;;;5.42;57.48;103177.34;5033158;28;20029;-72
2023/01/21 06:35:31;;;;;;;70.67;26.63;;;;;;;5.08;58.81;103186.06;5036402;28;20032;-72
2023/01/21 06:37:57;;;;;;;73.70;26.73;;;;;;;5.15;58.16;103188.16;5049817;28;20033;-72
2023/01/21 06:40:24;;;;;;;73.07;25.97;;;;;;;5.02;58.10;103193.53;5048398;28;20071;-72
2023/01/21 06:42:49;;;;;;;79.17;25.70;;;;;;;5.28;58.72;103183.59;5033254;28;20393;-71
2023/01/21 06:45:15;;;;;;;83.73;26.63;;;;;;;5.43;56.91;103185.22;5028197;28;20276;-71
2023/01/21 06:47:42;;;;;;;77.53;28.40;;;;;;;5.64;56.78;103188.78;5029305;28;20542;-71
2023/01/21 06:50:09;;;;;;;71.37;26.13;;;;;;;5.29;58.19;103200.91;5034169;28;20025;-71
2023/01/21 06:52:35;;;;;;;76.30;24.97;;;;;;;5.59;55.96;103196.31;5046242;28;20798;-71
2023/01/21 06:55:00;;;;;;;85.43;27.60;;;;;;;5.48;57.74;103203.63;5048471;28;20066;-70
2023/01/21 06:57:25;;;;;;;70.97;26.10;;;;;;;5.52;56.15;103205.53;5049886;28;20031;-71
2023/01/21 06:59:51;;;;;;;81.03;25.50;;;;;;;5.25;58.41;103213.72;5049600;28;20037;-71
2023/01/21 07:02:16;;;;;;;77.43;25.93;;;;;;;5.70;56.17;103204.63;5038818;28;20083;-70
2023/01/21 07:04:42;;;;;;;83.83;28.70;;;;;;;5.67;55.55;103209.69;5032677;28;20025;-70
2023/01/21 07:07:07;;;;;;;80.20;27.93;;;;;;;5.71;55.62;103217.69;5048103;28;20045;-70
2023/01/21 07:09:32;;;;;;;80.97;27.83;;;;;;;5.58;56.31;103216.22;5041319;28;20753;-71
2023/01/21 07:11:58;;;;;;;79.77;26.43;;;;;;;5.68;55.50;103229.63;5036752;28;20056;-70
2023/01/21 07:14:23;;;;;;;82.27;29.00;;;;;;;5.61;56.34;103231.91;5031770;28;20037;-71
2023/01/21 07:16:49;;;;;;;79.40;27.63;;;;;;;5.56;56.48;103233.41;5030002;28;20033;-71
2023/01/21 07:19:14;;;;;;;81.13;28.53;;;;;;;5.69;55.59;103234.91;5028311;28;20116;-71
2023/01/21 07:21:40;;;;;;;80.90;26.60;;;;;;;5.59;56.48;103230.97;5030247;28;20038;-71
2023/01/21 07:24:06;;;;;;;80.00;26.43;;;;;;;5.76;54.97;103233.50;5028596;28;20128;-70
2023/01/21 07:26:35;;;;;;;75.00;26.07;;;;;;;5.74;54.50;103238.63;5028907;28;20338;-72
2023/01/21 07:29:01;;;;;;;93.07;32.17;;;;;;;5.76;54.72;103236.09;5030179;28;20446;-71
2023/01/21 07:31:26;;;;;;;87.27;32.70;;;;;;;5.66;54.91;103231.25;5034793;28;20437;-71
2023/01/21 07:33:52;;;;;;;96.77;32.50;;;;;;;5.64;55.05;103235.50;5043623;28;20307;-71
2023/01/21 07:36:17;;;;;;;84.63;28.33;;;;;;;5.71;54.40;103246.22;5029600;28;20065;-71
2023/01/21 07:38:43;;;;;;;82.00;27.57;;;;;;;5.46;55.14;103241.53;5047016;28;20037;-71
2023/01/21 07:41:08;;;;;;;79.30;28.03;;;;;;;5.28;56.22;103251.03;5046583;28;20028;-72
2023/01/21 07:43:33;;;;;;;85.67;27.80;;;;;;;5.65;54.65;103242.47;5043433;28;20079;-71
2023/01/21 07:45:59;;;;;;;77.90;26.53;;;;;;;5.21;55.59;103255.00;5048535;28;20362;-71
2023/01/21 07:48:24;;;;;;;82.70;29.57;;;;;;;5.37;55.85;103260.16;5045821;28;20067;-71
2023/01/21 07:50:50;;;;;;;99.90;32.40;;;;;;;5.65;54.46;103268.41;5046083;28;20029;-71
2023/01/21 07:53:15;;;;;;;87.93;29.07;;;;;;;5.63;54.38;103265.72;5048132;28;20482;-72
2023/01/21 07:55:41;;;;;;;87.93;29.73;;;;;;;5.48;54.92;103262.38;5046263;28;20204;-71
2023/01/21 07:58:06;;;;;;;88.17;29.03;;;;;;;5.16;55.88;103272.91;5048642;28;20435;-71
2023/01/21 08:00:31;;;;;;;84.40;30.10;;;;;;;5.41;55.54;103279.34;5046580;28;20555;-71
2023/01/21 08:02:57;;;;;;;85.10;29.07;;;;;;;5.62;54.67;103284.72;5048382;28;20056;-71
2023/01/21 08:05:24;;;;;;;83.93;31.10;;;;;;;5.63;54.37;103290.78;5051619;28;20489;-71
2023/01/21 08:07:50;;;;;;;76.77;28.43;;;;;;;5.15;55.59;103294.47;5053293;28;20488;-71
2023/01/21 08:10:17;;;;;;;79.73;29.03;;;;;;;5.10;56.81;103299.41;5036390;28;20295;-71
2023/01/21 08:12:43;;;;;;;84.97;29.40;;;;;;;5.25;56.06;103294.13;5032454;28;20033;-71
2023/01/21 08:15:10;;;;;;;87.17;29.60;;;;;;;5.30;55.55;103291.75;5055701;28;20017;-71
2023/01/21 08:17:43;;;;;;;84.63;28.17;;;;;;;5.61;55.29;103304.56;5043371;28;20437;-71
2023/01/21 08:20:10;;;;;;;84.93;27.47;;;;;;;5.61;54.27;103303.69;5044331;28;20295;-71
2023/01/21 08:22:36;;;;;;;83.90;26.90;;;;;;;5.71;54.27;103302.44;5048917;28;20315;-71
2023/01/21 08:25:02;;;;;;;83.97;27.63;;;;;;;5.73;54.28;103313.81;5050200;28;20783;-71
2023/01/21 08:27:28;;;;;;;83.47;26.43;;;;;;;5.73;54.11;103311.22;5050218;28;20063;-71
2023/01/21 08:29:53;;;;;;;84.60;26.67;;;;;;;5.78;54.26;103322.69;5048055;28;20331;-70
2023/01/21 08:32:19;;;;;;;87.30;28.97;;;;;;;5.53;54.96;103320.59;5050565;28;20767;-71
2023/01/21 08:34:44;;;;;;;85.70;26.90;;;;;;;5.58;56.11;103330.38;5046819;28;20029;-71
2023/01/21 08:37:09;;;;;;;82.53;29.77;;;;;;;5.73;55.52;103329.38;5049182;28;20360;-71
2023/01/21 08:39:35;;;;;;;82.10;26.30;;;;;;;5.80;55.73;103336.66;5044128;28;20091;-71
2023/01/21 08:42:00;;;;;;;93.43;28.23;;;;;;;5.52;56.21;103330.06;5041422;28;20037;-71
2023/01/21 08:44:26;;;;;;;88.33;28.13;;;;;;;5.81;55.90;103333.25;5051447;28;20029;-71
2023/01/21 08:46:51;;;;;;;101.23;30.07;;;;;;;5.59;56.64;103337.34;5051891;28;20485;-71
2023/01/21 08:49:17;;;;;;;95.97;32.53;;;;;;;5.43;57.51;103342.56;5050964;28;20108;-71
2023/01/21 08:51:42;;;;;;;98.83;31.40;;;;;;;5.57;57.67;103338.97;5036048;28;20044;-71
2023/01/21 08:54:07;;;;;;;92.37;32.00;;;;;;;5.48;58.09;103343.72;5048031;28;20546;-71
2023/01/21 08:56:33;;;;;;;102.67;32.10;;;;;;;5.81;57.07;103348.81;5052120;28;20029;-71
2023/01/21 08:58:59;;;;;;;95.20;30.43;;;;;;;5.87;56.49;103338.72;5051583;28;20103;-71
2023/01/21 09:01:25;;;;;;;98.80;30.60;;;;;;;6.43;54.54;103337.13;5039276;28;20114;-71
2023/01/21 09:03:58;;;;;;;90.53;30.47;;;;;;;5.79;56.37;103350.44;5051312;28;20028;-71
2023/01/21 09:06:25;;;;;;;82.53;29.73;;;;;;;5.80;57.27;103357.41;5051002;28;20056;-71
2023/01/21 09:08:50;;;;;;;87.63;29.23;;;;;;;6.04;55.99;103351.69;5050670;28;20033;-71
2023/01/21 09:11:16;;;;;;;92.00;29.57;;;;;;;6.35;55.39;103358.38;5046114;28;20029;-70
2023/01/21 09:13:45;;;;;;;96.23;32.00;;;;;;;6.62;54.57;103359.66;5036242;28;20447;-70
2023/01/21 09:16:19;;;;;;;92.53;31.37;;;;;;;6.61;55.53;103368.28;5046668;28;20115;-70
2023/01/21 09:18:44;;;;;;;87.67;30.77;;;;;;;6.94;54.92;103367.19;5042667;28;20427;-71
2023/01/21 09:21:10;;;;;;;98.10;33.03;;;;;;;6.71;55.42;103368.72;5049224;28;20035;-70
2023/01/21 09:23:37;;;;;;;101.57;32.60;;;;;;;7.13;55.61;103374.97;5049347;28;20033;-70
2023/01/21 09:26:14;;;;;;;94.53;29.20;;;;;;;7.13;55.70;103361.97;5048905;28;20029;-70
2023/01/21 09:28:42;;;;;;;95.20;29.67;;;;;;;6.16;57.49;103380.84;5039277;28;20095;-69
2023/01/21 09:31:11;;;;;;;82.63;27.73;;;;;;;6.03;59.61;103373.25;5030431;28;20039;-70
2023/01/21 09:33:39;;;;;;;75.70;27.30;;;;;;;6.08;59.09;103384.78;5034275;28;20037;-70
2023/01/21 09:36:06;;;;;;;80.00;27.07;;;;;;;5.48;59.56;103384.31;5034397;28;20034;-71
2023/01/21 09:38:32;;;;;;;85.60;28.30;;;;;;;5.60;60.37;103385.84;5044020;28;20037;-70
2023/01/21 09:41:23;;;;;;;80.73;28.90;;;;;;;5.70;59.24;103389.81;5032153;28;20044;-70
2023/01/21 09:43:56;;;;;;;86.20;28.47;;;;;;;6.86;57.06;103392.81;5034809;28;20037;-70
2023/01/21 09:46:37;;;;;;;87.37;29.87;;;;;;;7.06;55.93;103382.44;5034420;28;20024;-70
2023/01/21 09:49:11;;;;;;;92.60;29.73;;;;;;;6.43;56.55;103393.41;5049259;28;20469;-70
2023/01/21 09:51:47;;;;;;;89.77;29.50;;;;;;;6.19;59.19;103393.97;5042287;28;20038;-70
2023/01/21 09:54:23;;;;;;;83.03;27.13;;;;;;;6.50;56.83;103400.66;5028924;28;20044;-70
2023/01/21 09:57:16;;;;;;;71.90;24.73;;;;;;;6.11;57.95;103405.69;5043424;28;20222;-70
2023/01/21 09:59:58;;;;;;;64.97;24.30;;;;;;;6.48;57.26;103410.09;5040596;28;20491;-70
2023/01/21 10:02:51;;;;;;;64.72;22.52;;;;;;;5.37;59.43;103413.19;5037986;28;20033;-70
2023/01/21 10:05:22;;;;;;;60.58;23.77;;;;;;;4.96;60.19;103434.28;5029395;28;20608;-70
2023/01/21 10:07:58;;;;;;;57.70;22.13;;;;;;;5.09;63.37;103426.38;5029488;28;20094;-70
2023/01/21 10:10:40;;;;;;;58.03;21.33;;;;;;;4.51;64.10;103431.81;5028855;28;20038;-70
2023/01/21 10:13:36;;;;;;;52.70;22.30;;;;;;;5.16;61.59;103431.06;5029653;28;20560;-70
2023/01/21 10:16:42;;;;;;;54.03;21.13;;;;;;;4.82;62.34;103442.22;5028762;28;20040;-70
2023/01/21 10:19:15;;;;;;;65.17;22.80;;;;;;;4.67;63.42;103442.25;5028818;28;20143;-70
2023/01/21 10:21:59;;;;;;;59.13;22.67;;;;;;;4.79;63.17;103447.19;5029591;28;20040;-70
2023/01/21 10:24:50;;;;;;;62.50;22.57;;;;;;;4.87;63.09;103429.50;5029899;28;20045;-70
2023/01/21 10:27:19;;;;;;;55.27;21.90;;;;;;;4.69;62.57;103447.50;5028826;28;20030;-70
2023/01/21 10:29:49;;;;;;;59.80;21.73;;;;;;;4.73;62.65;103446.88;5028662;28;20124;-70
2023/01/21 10:32:23;;;;;;;52.60;21.20;;;;;;;5.69;59.95;103436.44;5030348;28;20091;-71
2023/01/21 10:34:54;;;;;;;63.73;21.73;;;;;;;5.06;61.43;103442.66;5030805;28;20161;-70
2023/01/21 10:37:41;;;;;;;67.30;22.27;;;;;;;6.11;59.21;103442.03;5029661;28;20060;-70
2023/01/21 10:40:41;;;;;;;58.90;21.90;;;;;;;6.16;57.04;103440.59;5028897;28;20477;-70
2023/01/21 10:43:25;;;;;;;66.50;23.23;;;;;;;7.11;55.28;103443.34;5030469;28;20061;-70
2023/01/21 10:46:16;;;;;;;59.57;21.93;;;;;;;6.28;57.66;103443.78;5030446;28;20049;-70
2023/01/21 10:48:59;;;;;;;67.70;23.90;;;;;;;5.87;59.59;103442.56;5029411;28;20393;-70
2023/01/21 10:51:32;;;;;;;68.17;23.30;;;;;;;6.70;56.38;103445.78;5028278;28;20043;-70
2023/01/21 10:54:25;;;;;;;69.73;24.37;;;;;;;6.39;58.19;103438.25;5029125;28;20512;-70
2023/01/21 10:57:08;;;;;;;76.53;24.27;;;;;;;6.01;59.12;103430.31;5062419;28;20083;-70
2023/01/21 10:59:36;;;;;;;70.77;24.53;;;;;;;6.30;57.32;103437.78;5028044;28;20086;-70
2023/01/21 11:02:12;;;;;;;79.43;25.70;;;;;;;6.39;57.53;103433.06;5062123;28;20033;-70
2023/01/21 11:04:41;;;;;;;70.90;24.93;;;;;;;6.12;58.48;103423.06;5028065;28;20527;-71
2023/01/21 11:07:10;;;;;;;73.57;26.17;;;;;;;6.17;57.18;103437.19;5028962;28;20048;-70
2023/01/21 11:09:43;;;;;;;77.57;26.67;;;;;;;5.68;59.38;103445.91;5045324;28;20028;-70
2023/01/21 11:12:11;;;;;;;71.73;24.10;;;;;;;5.14;60.33;103456.03;5028364;28;20056;-70
2023/01/21 11:14:37;;;;;;;76.30;27.00;;;;;;;5.76;59.55;103443.72;5030134;28;20061;-70
2023/01/21 11:17:02;;;;;;;84.00;28.60;;;;;;;6.43;58.88;103445.38;5045487;28;20068;-70
2023/01/21 11:19:29;;;;;;;74.80;26.63;;;;;;;6.30;58.01;103442.97;5029156;28;20033;-70
2023/01/21 11:22:17;;;;;;;69.33;25.70;;;;;;;6.22;58.45;103446.09;5030227;28;20104;-70
2023/01/21 11:24:45;;;;;;;67.57;24.30;;;;;;;6.61;57.75;103453.16;5030117;28;20611;-71
2023/01/21 11:27:30;;;;;;;70.20;25.80;;;;;;;6.29;59.09;103444.66;5029343;28;20024;-71
2023/01/21 11:29:55;;;;;;;66.77;23.60;;;;;;;6.62;58.43;103453.25;5030283;28;20026;-70
2023/01/21 11:32:23;;;;;;;68.67;24.87;;;;;;;7.05;57.79;103453.50;5029759;28;20367;-70